createdAt,value
2023-05-14T00:00:33.434Z,500.00
2023-05-14T00:01:33.435Z,500.00
2023-05-14T00:02:33.503Z,500.00
2023-05-14T00:03:33.479Z,446.00
2023-05-14T00:04:33.605Z,422.00
2023-05-14T00:05:33.437Z,415.00
2023-05-14T00:06:33.449Z,426.00
2023-05-14T00:07:33.435Z,446.00
2023-05-14T00:08:33.442Z,468.00
2023-05-14T00:09:33.519Z,493.00
2023-05-14T00:10:33.446Z,500.00
2023-05-14T00:11:33.444Z,501.00
2023-05-14T00:12:33.444Z,500.00
2023-05-14T00:13:33.393Z,502.00
2023-05-14T00:14:33.399Z,500.00
2023-05-14T00:15:34.560Z,500.00
2023-05-14T00:16:33.480Z,500.00
2023-05-14T00:17:33.478Z,501.00
2023-05-14T00:18:33.539Z,500.00
2023-05-14T00:19:33.442Z,505.00
2023-05-14T00:20:33.437Z,501.00
2023-05-14T00:21:33.461Z,500.00
2023-05-14T00:22:33.431Z,500.00
2023-05-14T00:23:33.437Z,500.00
2023-05-14T00:24:33.435Z,500.00
2023-05-14T00:25:33.441Z,504.00
2023-05-14T00:26:33.468Z,504.00
2023-05-14T00:27:33.437Z,501.00
2023-05-14T00:28:33.499Z,503.00
2023-05-14T00:29:33.434Z,500.00
2023-05-14T00:30:33.433Z,503.00
2023-05-14T00:31:33.466Z,501.00
2023-05-14T00:32:33.493Z,501.00
2023-05-14T00:33:33.436Z,502.00
2023-05-14T00:34:33.443Z,501.00
2023-05-14T00:35:33.445Z,501.00
2023-05-14T00:36:33.451Z,505.00
2023-05-14T00:37:33.429Z,500.00
2023-05-14T00:38:32.851Z,504.00
2023-05-14T00:39:33.436Z,501.00
2023-05-14T00:40:33.436Z,502.00
2023-05-14T00:41:33.457Z,503.00
2023-05-14T00:42:33.440Z,504.00
2023-05-14T00:43:33.432Z,502.00
2023-05-14T00:44:33.494Z,506.00
2023-05-14T00:45:33.444Z,500.00
2023-05-14T00:46:33.725Z,505.00
2023-05-14T00:47:33.463Z,503.00
2023-05-14T00:48:33.430Z,500.00
2023-05-14T00:49:33.469Z,506.00
2023-05-14T00:50:33.442Z,508.00
2023-05-14T00:51:33.439Z,501.00
2023-05-14T00:52:33.445Z,505.00
2023-05-14T00:53:33.440Z,502.00
2023-05-14T00:54:33.437Z,507.00
2023-05-14T00:55:33.444Z,505.00
2023-05-14T00:56:33.440Z,502.00
2023-05-14T00:57:33.455Z,500.00
2023-05-14T00:58:33.463Z,504.00
2023-05-14T00:59:33.447Z,506.00
2023-05-14T01:00:33.525Z,501.00
2023-05-14T01:01:33.468Z,504.00
2023-05-14T01:02:33.542Z,503.00
2023-05-14T01:03:33.604Z,505.00
2023-05-14T01:04:33.441Z,507.00
2023-05-14T01:05:33.429Z,504.00
2023-05-14T01:06:33.444Z,503.00
2023-05-14T01:07:33.432Z,502.00
2023-05-14T01:08:33.442Z,502.00
2023-05-14T01:09:33.444Z,505.00
2023-05-14T01:10:33.436Z,506.00
2023-05-14T01:11:33.504Z,508.00
2023-05-14T01:12:33.446Z,505.00
2023-05-14T01:13:33.455Z,504.00
2023-05-14T01:14:33.426Z,500.00
2023-05-14T01:15:33.500Z,505.00
2023-05-14T01:16:33.507Z,502.00
2023-05-14T01:17:33.448Z,503.00
2023-05-14T01:18:33.519Z,503.00
2023-05-14T01:19:33.452Z,503.00
2023-05-14T01:20:33.457Z,504.00
2023-05-14T01:21:33.451Z,500.00
2023-05-14T01:22:33.457Z,501.00
2023-05-14T01:23:33.469Z,503.00
2023-05-14T01:24:33.468Z,503.00
2023-05-14T01:25:33.467Z,502.00
2023-05-14T01:26:33.494Z,504.00
2023-05-14T01:27:33.488Z,502.00
2023-05-14T01:28:33.488Z,500.00
2023-05-14T01:29:33.485Z,502.00
2023-05-14T01:30:33.522Z,500.00
2023-05-14T01:31:33.542Z,507.00
2023-05-14T01:32:33.557Z,503.00
2023-05-14T01:33:33.489Z,507.00
2023-05-14T01:34:33.491Z,505.00
2023-05-14T01:35:33.496Z,502.00
2023-05-14T01:36:33.489Z,504.00
2023-05-14T01:37:33.491Z,503.00
2023-05-14T01:38:33.502Z,508.00
2023-05-14T01:39:33.522Z,506.00
2023-05-14T01:40:33.515Z,503.00
2023-05-14T01:41:33.528Z,500.00
2023-05-14T01:42:33.527Z,506.00
2023-05-14T01:43:33.569Z,506.00
2023-05-14T01:44:33.544Z,505.00
2023-05-14T01:45:33.575Z,501.00
2023-05-14T01:46:33.711Z,506.00
2023-05-14T01:47:33.565Z,505.00
2023-05-14T01:48:33.601Z,502.00
2023-05-14T01:49:33.579Z,501.00
2023-05-14T01:50:33.572Z,502.00
2023-05-14T01:51:33.572Z,502.00
2023-05-14T01:52:33.577Z,504.00
2023-05-14T01:53:33.585Z,506.00
2023-05-14T01:54:33.590Z,505.00
2023-05-14T01:55:33.594Z,503.00
2023-05-14T01:56:33.615Z,507.00
2023-05-14T01:57:33.613Z,504.00
2023-05-14T01:58:33.630Z,503.00
2023-05-14T01:59:33.632Z,504.00
2023-05-14T02:00:33.627Z,505.00
2023-05-14T02:01:33.693Z,504.00
2023-05-14T02:02:33.674Z,503.00
2023-05-14T02:03:33.678Z,503.00
2023-05-14T02:04:33.664Z,504.00
2023-05-14T02:05:33.642Z,500.00
2023-05-14T02:06:33.640Z,509.00
2023-05-14T02:07:33.661Z,505.00
2023-05-14T02:08:33.646Z,504.00
2023-05-14T02:09:33.650Z,510.00
2023-05-14T02:10:33.697Z,508.00
2023-05-14T02:11:33.688Z,509.00
2023-05-14T02:12:33.693Z,505.00
2023-05-14T02:13:33.701Z,506.00
2023-05-14T02:14:33.693Z,505.00
2023-05-14T02:15:33.706Z,506.00
2023-05-14T02:16:33.853Z,503.00
2023-05-14T02:17:33.733Z,505.00
2023-05-14T02:18:33.733Z,507.00
2023-05-14T02:19:33.729Z,509.00
2023-05-14T02:20:33.768Z,506.00
2023-05-14T02:21:33.735Z,504.00
2023-05-14T02:22:33.748Z,503.00
2023-05-14T02:23:40.907Z,504.00
2023-05-14T02:24:33.746Z,505.00
2023-05-14T02:25:33.745Z,506.00
2023-05-14T02:26:33.734Z,507.00
2023-05-14T02:27:33.722Z,506.00
2023-05-14T02:28:33.716Z,503.00
2023-05-14T02:29:33.716Z,504.00
2023-05-14T02:30:33.714Z,506.00
2023-05-14T02:31:33.804Z,501.00
2023-05-14T02:32:33.775Z,506.00
2023-05-14T02:33:33.733Z,507.00
2023-05-14T02:34:33.676Z,503.00
2023-05-14T02:35:33.679Z,508.00
2023-05-14T02:36:33.701Z,505.00
2023-05-14T02:37:33.678Z,500.00
2023-05-14T02:38:33.682Z,504.00
2023-05-14T02:39:33.666Z,500.00
2023-05-14T02:40:33.650Z,505.00
2023-05-14T02:41:33.651Z,503.00
2023-05-14T02:42:33.638Z,505.00
2023-05-14T02:43:33.658Z,505.00
2023-05-14T02:44:33.627Z,504.00
2023-05-14T02:45:33.621Z,504.00
2023-05-14T02:46:33.691Z,501.00
2023-05-14T02:47:34.832Z,502.00
2023-05-14T02:48:33.599Z,502.00
2023-05-14T02:49:33.602Z,503.00
2023-05-14T02:50:33.601Z,503.00
2023-05-14T02:51:33.585Z,504.00
2023-05-14T02:52:33.613Z,503.00
2023-05-14T02:53:33.588Z,503.00
2023-05-14T02:54:33.599Z,502.00
2023-05-14T02:55:33.574Z,502.00
2023-05-14T02:56:33.582Z,506.00
2023-05-14T02:57:33.569Z,505.00
2023-05-14T02:58:33.561Z,505.00
2023-05-14T02:59:33.560Z,504.00
2023-05-14T03:00:33.630Z,505.00
2023-05-14T03:01:33.555Z,505.00
2023-05-14T03:02:33.619Z,507.00
2023-05-14T03:03:33.550Z,503.00
2023-05-14T03:04:33.542Z,506.00
2023-05-14T03:05:33.538Z,503.00
2023-05-14T03:06:33.531Z,503.00
2023-05-14T03:07:33.521Z,502.00
2023-05-14T03:08:33.598Z,502.00
2023-05-14T03:09:34.218Z,507.00
2023-05-14T03:10:33.528Z,505.00
2023-05-14T03:11:33.538Z,506.00
2023-05-14T03:12:33.558Z,510.00
2023-05-14T03:13:33.578Z,507.00
2023-05-14T03:14:33.587Z,508.00
2023-05-14T03:15:33.601Z,510.00
2023-05-14T03:16:33.660Z,505.00
2023-05-14T03:17:33.641Z,505.00
2023-05-14T03:18:33.650Z,506.00
2023-05-14T03:19:33.636Z,507.00
2023-05-14T03:20:33.652Z,503.00
2023-05-14T03:21:33.668Z,503.00
2023-05-14T03:22:33.667Z,504.00
2023-05-14T03:23:33.665Z,507.00
2023-05-14T03:24:33.698Z,508.00
2023-05-14T03:25:33.686Z,506.00
2023-05-14T03:26:33.692Z,506.00
2023-05-14T03:27:33.712Z,504.00
2023-05-14T03:28:33.700Z,502.00
2023-05-14T03:29:33.708Z,506.00
2023-05-14T03:30:33.735Z,507.00
2023-05-14T03:31:33.748Z,505.00
2023-05-14T03:32:33.777Z,503.00
2023-05-14T03:33:33.739Z,503.00
2023-05-14T03:34:33.742Z,503.00
2023-05-14T03:35:33.751Z,508.00
2023-05-14T03:36:33.761Z,504.00
2023-05-14T03:37:33.770Z,502.00
2023-05-14T03:38:33.768Z,504.00
2023-05-14T03:39:33.785Z,503.00
2023-05-14T03:40:33.849Z,503.00
2023-05-14T03:41:33.855Z,505.00
2023-05-14T03:42:33.827Z,501.00
2023-05-14T03:43:33.841Z,506.00
2023-05-14T03:44:33.845Z,504.00
2023-05-14T03:45:33.866Z,509.00
2023-05-14T03:46:33.873Z,506.00
2023-05-14T03:47:33.926Z,505.00
2023-05-14T03:48:33.918Z,503.00
2023-05-14T03:49:33.893Z,502.00
2023-05-14T03:50:34.287Z,507.00
2023-05-14T03:51:34.265Z,506.00
2023-05-14T03:52:34.309Z,510.00
2023-05-14T03:53:34.320Z,507.00
2023-05-14T03:54:34.310Z,505.00
2023-05-14T03:55:34.307Z,511.00
2023-05-14T03:56:34.962Z,506.00
2023-05-14T03:57:34.315Z,509.00
2023-05-14T03:58:34.303Z,506.00
2023-05-14T03:59:34.306Z,504.00
2023-05-14T04:00:34.314Z,505.00
2023-05-14T04:01:34.311Z,505.00
2023-05-14T04:02:34.419Z,503.00
2023-05-14T04:03:34.410Z,504.00
2023-05-14T04:04:34.358Z,508.00
2023-05-14T04:05:34.311Z,506.00
2023-05-14T04:06:34.320Z,505.00
2023-05-14T04:07:34.329Z,507.00
2023-05-14T04:08:34.309Z,506.00
2023-05-14T04:09:34.305Z,513.00
2023-05-14T04:10:34.306Z,507.00
2023-05-14T04:11:34.312Z,503.00
2023-05-14T04:12:34.348Z,504.00
2023-05-14T04:13:34.310Z,504.00
2023-05-14T04:14:34.301Z,501.00
2023-05-14T04:15:34.310Z,504.00
2023-05-14T04:16:34.419Z,500.00
2023-05-14T04:17:35.147Z,504.00
2023-05-14T04:18:34.317Z,506.00
2023-05-14T04:19:34.303Z,507.00
2023-05-14T04:20:34.307Z,504.00
2023-05-14T04:21:34.331Z,508.00
2023-05-14T04:22:34.310Z,504.00
2023-05-14T04:23:34.316Z,507.00
2023-05-14T04:24:34.307Z,505.00
2023-05-14T04:25:34.304Z,506.00
2023-05-14T04:26:34.311Z,506.00
2023-05-14T04:27:34.313Z,504.00
2023-05-14T04:28:34.329Z,509.00
2023-05-14T04:29:34.308Z,503.00
2023-05-14T04:30:34.308Z,507.00
2023-05-14T04:31:34.326Z,506.00
2023-05-14T04:32:34.341Z,505.00
2023-05-14T04:33:34.311Z,506.00
2023-05-14T04:34:34.337Z,507.00
2023-05-14T04:35:34.341Z,506.00
2023-05-14T04:36:34.345Z,506.00
2023-05-14T04:37:34.360Z,501.00
2023-05-14T04:38:34.371Z,503.00
2023-05-14T04:39:34.378Z,503.00
2023-05-14T04:40:34.481Z,503.00
2023-05-14T04:41:34.409Z,502.00
2023-05-14T04:42:34.422Z,505.00
2023-05-14T04:43:34.436Z,501.00
2023-05-14T04:44:34.475Z,502.00
2023-05-14T04:45:34.531Z,502.00
2023-05-14T04:46:34.559Z,503.00
2023-05-14T04:47:34.496Z,505.00
2023-05-14T04:48:34.516Z,506.00
2023-05-14T04:49:34.525Z,505.00
2023-05-14T04:50:34.526Z,504.00
2023-05-14T04:51:34.523Z,510.00
2023-05-14T04:52:34.553Z,502.00
2023-05-14T04:53:34.542Z,504.00
2023-05-14T04:54:34.661Z,504.00
2023-05-14T04:55:34.567Z,511.00
2023-05-14T04:56:34.589Z,501.00
2023-05-14T04:57:34.596Z,504.00
2023-05-14T04:58:35.197Z,506.00
2023-05-14T04:59:34.638Z,500.00
2023-05-14T05:00:34.661Z,508.00
2023-05-14T05:01:34.728Z,506.00
2023-05-14T05:02:34.719Z,503.00
2023-05-14T05:03:34.701Z,505.00
2023-05-14T05:04:34.682Z,504.00
2023-05-14T05:05:34.690Z,506.00
2023-05-14T05:06:34.724Z,505.00
2023-05-14T05:07:34.714Z,501.00
2023-05-14T05:08:34.725Z,502.00
2023-05-14T05:09:34.751Z,500.00
2023-05-14T05:10:34.760Z,507.00
2023-05-14T05:11:34.767Z,504.00
2023-05-14T05:12:34.779Z,502.00
2023-05-14T05:13:34.782Z,505.00
2023-05-14T05:14:34.788Z,500.00
2023-05-14T05:15:34.795Z,503.00
2023-05-14T05:16:34.955Z,506.00
2023-05-14T05:17:34.864Z,501.00
2023-05-14T05:18:34.867Z,503.00
2023-05-14T05:19:43.144Z,505.00
2023-05-14T05:20:34.861Z,505.00
2023-05-14T05:21:34.862Z,507.00
2023-05-14T05:22:34.857Z,506.00
2023-05-14T05:23:34.847Z,505.00
2023-05-14T05:24:34.849Z,505.00
2023-05-14T05:25:34.853Z,504.00
2023-05-14T05:26:34.848Z,503.00
2023-05-14T05:27:34.853Z,503.00
2023-05-14T05:28:34.845Z,502.00
2023-05-14T05:29:34.836Z,505.00
2023-05-14T05:30:34.828Z,505.00
2023-05-14T05:31:34.857Z,505.00
2023-05-14T05:32:34.875Z,505.00
2023-05-14T05:33:34.816Z,503.00
2023-05-14T05:34:34.816Z,505.00
2023-05-14T05:35:34.812Z,503.00
2023-05-14T05:36:34.808Z,505.00
2023-05-14T05:37:34.812Z,502.00
2023-05-14T05:38:34.812Z,504.00
2023-05-14T05:39:35.076Z,507.00
2023-05-14T05:40:34.806Z,505.00
2023-05-14T05:41:34.806Z,507.00
2023-05-14T05:42:34.803Z,505.00
2023-05-14T05:43:34.830Z,507.00
2023-05-14T05:44:34.789Z,506.00
2023-05-14T05:45:34.787Z,505.00
2023-05-14T05:46:34.799Z,507.00
2023-05-14T05:47:34.883Z,508.00
2023-05-14T05:48:34.803Z,504.00
2023-05-14T05:49:34.776Z,505.00
2023-05-14T05:50:34.781Z,507.00
2023-05-14T05:51:34.786Z,504.00
2023-05-14T05:52:34.787Z,504.00
2023-05-14T05:53:34.784Z,506.00
2023-05-14T05:54:34.784Z,505.00
2023-05-14T05:55:34.784Z,504.00
2023-05-14T05:56:34.792Z,506.00
2023-05-14T05:57:34.800Z,503.00
2023-05-14T05:58:34.781Z,508.00
2023-05-14T05:59:34.798Z,508.00
2023-05-14T06:00:34.773Z,505.00
2023-05-14T06:01:34.782Z,508.00
2023-05-14T06:02:34.831Z,507.00
2023-05-14T06:03:34.783Z,510.00
2023-05-14T06:04:34.802Z,505.00
2023-05-14T06:05:34.778Z,508.00
2023-05-14T06:06:34.766Z,502.00
2023-05-14T06:07:34.759Z,506.00
2023-05-14T06:08:34.750Z,509.00
2023-05-14T06:09:34.766Z,505.00
2023-05-14T06:10:34.767Z,508.00
2023-05-14T06:11:34.797Z,506.00
2023-05-14T06:12:34.754Z,506.00
2023-05-14T06:13:34.753Z,505.00
2023-05-14T06:14:34.731Z,508.00
2023-05-14T06:15:34.728Z,503.00
2023-05-14T06:16:34.835Z,502.00
2023-05-14T06:17:34.756Z,506.00
2023-05-14T06:18:34.756Z,505.00
2023-05-14T06:19:34.724Z,509.00
2023-05-14T06:20:35.525Z,500.00
2023-05-14T06:21:34.734Z,508.00
2023-05-14T06:22:34.732Z,505.00
2023-05-14T06:23:34.740Z,505.00
2023-05-14T06:24:34.708Z,508.00
2023-05-14T06:25:34.701Z,506.00
2023-05-14T06:26:34.715Z,508.00
2023-05-14T06:27:34.711Z,507.00
2023-05-14T06:28:34.697Z,508.00
2023-05-14T06:29:34.705Z,504.00
2023-05-14T06:30:34.697Z,507.00
2023-05-14T06:31:34.742Z,508.00
2023-05-14T06:32:34.757Z,500.00
2023-05-14T06:33:34.680Z,504.00
2023-05-14T06:34:34.680Z,503.00
2023-05-14T06:35:34.682Z,504.00
2023-05-14T06:36:34.680Z,504.00
2023-05-14T06:37:34.658Z,504.00
2023-05-14T06:38:34.643Z,500.00
2023-05-14T06:39:34.639Z,506.00
2023-05-14T06:40:34.631Z,507.00
2023-05-14T06:41:34.625Z,503.00
2023-05-14T06:42:34.611Z,508.00
2023-05-14T06:43:34.606Z,505.00
2023-05-14T06:44:34.606Z,504.00
2023-05-14T06:45:34.596Z,508.00
2023-05-14T06:46:34.599Z,500.00
2023-05-14T06:47:34.617Z,504.00
2023-05-14T06:48:34.660Z,504.00
2023-05-14T06:49:34.623Z,506.00
2023-05-14T06:50:34.698Z,506.00
2023-05-14T06:51:34.632Z,504.00
2023-05-14T06:52:34.661Z,507.00
2023-05-14T06:53:34.654Z,504.00
2023-05-14T06:54:34.656Z,505.00
2023-05-14T06:55:34.657Z,503.00
2023-05-14T06:56:34.655Z,503.00
2023-05-14T06:57:34.668Z,506.00
2023-05-14T06:58:34.662Z,505.00
2023-05-14T06:59:34.676Z,508.00
2023-05-14T07:00:34.718Z,502.00
2023-05-14T07:01:34.743Z,504.00
2023-05-14T07:02:34.719Z,505.00
2023-05-14T07:03:34.696Z,503.00
2023-05-14T07:04:34.790Z,505.00
2023-05-14T07:05:34.752Z,506.00
2023-05-14T07:06:34.743Z,505.00
2023-05-14T07:07:34.731Z,511.00
2023-05-14T07:08:34.770Z,503.00
2023-05-14T07:09:34.758Z,506.00
2023-05-14T07:10:34.767Z,505.00
2023-05-14T07:11:34.756Z,509.00
2023-05-14T07:12:34.759Z,503.00
2023-05-14T07:13:34.754Z,505.00
2023-05-14T07:14:34.777Z,506.00
2023-05-14T07:15:34.787Z,509.00
2023-05-14T07:16:34.834Z,507.00
2023-05-14T07:17:34.787Z,506.00
2023-05-14T07:18:34.787Z,506.00
2023-05-14T07:19:34.765Z,507.00
2023-05-14T07:20:34.780Z,508.00
2023-05-14T07:21:34.780Z,508.00
2023-05-14T07:22:34.787Z,505.00
2023-05-14T07:23:34.786Z,509.00
2023-05-14T07:24:34.816Z,507.00
2023-05-14T07:25:34.810Z,505.00
2023-05-14T07:26:34.799Z,510.00
2023-05-14T07:27:34.799Z,505.00
2023-05-14T07:28:34.811Z,504.00
2023-05-14T07:29:34.806Z,506.00
2023-05-14T07:30:34.808Z,509.00
2023-05-14T07:31:34.884Z,505.00
2023-05-14T07:32:34.920Z,507.00
2023-05-14T07:33:34.817Z,505.00
2023-05-14T07:34:34.841Z,509.00
2023-05-14T07:35:34.828Z,508.00
2023-05-14T07:36:34.827Z,508.00
2023-05-14T07:37:34.842Z,510.00
2023-05-14T07:38:34.840Z,510.00
2023-05-14T07:39:34.846Z,508.00
2023-05-14T07:40:34.864Z,508.00
2023-05-14T07:41:34.847Z,508.00
2023-05-14T07:42:37.040Z,508.00
2023-05-14T07:43:34.846Z,513.00
2023-05-14T07:44:34.845Z,514.00
2023-05-14T07:45:34.806Z,509.00
2023-05-14T07:46:34.812Z,507.00
2023-05-14T07:47:34.902Z,508.00
2023-05-14T07:48:34.834Z,503.00
2023-05-14T07:49:34.768Z,506.00
2023-05-14T07:50:34.807Z,504.00
2023-05-14T07:51:34.782Z,511.00
2023-05-14T07:52:34.774Z,507.00
2023-05-14T07:53:34.760Z,507.00
2023-05-14T07:54:34.753Z,506.00
2023-05-14T07:55:34.743Z,504.00
2023-05-14T07:56:34.783Z,504.00
2023-05-14T07:57:34.726Z,509.00
2023-05-14T07:58:34.714Z,507.00
2023-05-14T07:59:34.703Z,508.00
2023-05-14T08:00:34.700Z,503.00
2023-05-14T08:01:34.703Z,507.00
2023-05-14T08:03:33.722Z,509.00
2023-05-14T08:04:34.721Z,508.00
2023-05-14T08:05:34.663Z,509.00
2023-05-14T08:06:34.660Z,503.00
2023-05-14T08:07:34.679Z,509.00
2023-05-14T08:08:34.668Z,505.00
2023-05-14T08:09:34.633Z,509.00
2023-05-14T08:10:34.671Z,510.00
2023-05-14T08:11:34.620Z,509.00
2023-05-14T08:12:34.644Z,508.00
2023-05-14T08:13:34.623Z,506.00
2023-05-14T08:14:34.611Z,507.00
2023-05-14T08:15:34.596Z,508.00
2023-05-14T08:16:34.749Z,508.00
2023-05-14T08:17:34.659Z,511.00
2023-05-14T08:18:34.645Z,508.00
2023-05-14T08:19:34.592Z,511.00
2023-05-14T08:20:34.600Z,510.00
2023-05-14T08:21:34.585Z,510.00
2023-05-14T08:22:34.592Z,510.00
2023-05-14T08:23:34.589Z,506.00
2023-05-14T08:24:34.581Z,513.00
2023-05-14T08:25:34.570Z,512.00
2023-05-14T08:26:34.567Z,513.00
2023-05-14T08:27:34.567Z,510.00
2023-05-14T08:28:34.590Z,507.00
2023-05-14T08:29:34.554Z,512.00
2023-05-14T08:30:34.735Z,512.00
2023-05-14T08:31:34.542Z,509.00
2023-05-14T08:32:34.572Z,514.00
2023-05-14T08:33:34.539Z,511.00
2023-05-14T08:34:34.548Z,508.00
2023-05-14T08:35:34.540Z,509.00
2023-05-14T08:36:34.519Z,511.00
2023-05-14T08:37:34.530Z,510.00
2023-05-14T08:38:34.558Z,514.00
2023-05-14T08:39:34.514Z,509.00
2023-05-14T08:40:34.514Z,511.00
2023-05-14T08:41:34.508Z,508.00
2023-05-14T08:42:34.518Z,511.00
2023-05-14T08:43:34.506Z,507.00
2023-05-14T08:44:34.541Z,506.00
2023-05-14T08:45:34.525Z,509.00
2023-05-14T08:46:34.484Z,507.00
2023-05-14T08:47:34.525Z,510.00
2023-05-14T08:48:34.743Z,508.00
2023-05-14T08:49:34.530Z,510.00
2023-05-14T08:50:34.575Z,508.00
2023-05-14T08:51:34.594Z,506.00
2023-05-14T08:52:34.668Z,513.00
2023-05-14T08:53:34.656Z,509.00
2023-05-14T08:54:34.757Z,510.00
2023-05-14T08:55:34.738Z,513.00
2023-05-14T08:56:34.785Z,514.00
2023-05-14T08:57:34.819Z,509.00
2023-05-14T08:58:34.857Z,508.00
2023-05-14T08:59:34.913Z,505.00
2023-05-14T09:00:34.982Z,511.00
2023-05-14T09:01:35.046Z,508.00
2023-05-14T09:02:35.183Z,512.00
2023-05-14T09:03:35.122Z,510.00
2023-05-14T09:04:35.228Z,507.00
2023-05-14T09:05:35.189Z,515.00
2023-05-14T09:06:35.232Z,510.00
2023-05-14T09:07:35.264Z,512.00
2023-05-14T09:08:35.297Z,504.00
2023-05-14T09:09:35.345Z,507.00
2023-05-14T09:10:35.381Z,510.00
2023-05-14T09:11:35.424Z,509.00
2023-05-14T09:12:35.474Z,510.00
2023-05-14T09:13:35.532Z,513.00
2023-05-14T09:14:35.584Z,507.00
2023-05-14T09:15:35.629Z,510.00
2023-05-14T09:16:35.807Z,510.00
2023-05-14T09:17:35.826Z,508.00
2023-05-14T09:18:35.835Z,512.00
2023-05-14T09:19:35.853Z,509.00
2023-05-14T09:20:35.897Z,508.00
2023-05-14T09:21:35.922Z,508.00
2023-05-14T09:22:35.972Z,507.00
2023-05-14T09:23:35.999Z,505.00
2023-05-14T09:24:36.053Z,509.00
2023-05-14T09:25:36.124Z,510.00
2023-05-14T09:26:36.151Z,510.00
2023-05-14T09:27:36.179Z,508.00
2023-05-14T09:28:36.218Z,510.00
2023-05-14T09:29:36.239Z,507.00
2023-05-14T09:30:36.269Z,511.00
2023-05-14T09:31:36.466Z,510.00
2023-05-14T09:32:36.388Z,507.00
2023-05-14T09:33:36.397Z,513.00
2023-05-14T09:34:36.422Z,508.00
2023-05-14T09:35:36.467Z,511.00
2023-05-14T09:36:36.501Z,508.00
2023-05-14T09:37:36.521Z,509.00
2023-05-14T09:38:36.618Z,510.00
2023-05-14T09:39:36.611Z,514.00
2023-05-14T09:40:36.643Z,510.00
2023-05-14T09:41:36.697Z,514.00
2023-05-14T09:42:36.737Z,512.00
2023-05-14T09:43:36.794Z,510.00
2023-05-14T09:44:36.839Z,510.00
2023-05-14T09:45:36.911Z,517.00
2023-05-14T09:46:36.965Z,511.00
2023-05-14T09:47:37.136Z,509.00
2023-05-14T09:48:37.089Z,511.00
2023-05-14T09:49:37.078Z,507.00
2023-05-14T09:50:37.137Z,511.00
2023-05-14T09:51:37.187Z,514.00
2023-05-14T09:52:37.297Z,512.00
2023-05-14T09:53:37.290Z,514.00
2023-05-14T09:54:37.348Z,514.00
2023-05-14T09:55:37.414Z,516.00
2023-05-14T09:56:37.470Z,511.00
2023-05-14T09:57:37.537Z,516.00
2023-05-14T09:58:37.593Z,513.00
2023-05-14T09:59:37.635Z,513.00
2023-05-14T10:00:37.671Z,512.00
2023-05-14T10:01:37.906Z,516.00
2023-05-14T10:02:38.199Z,515.00
2023-05-14T10:03:37.799Z,514.00
2023-05-14T10:04:37.892Z,518.00
2023-05-14T10:05:37.895Z,514.00
2023-05-14T10:06:37.929Z,520.00
2023-05-14T10:07:37.985Z,511.00
2023-05-14T10:08:38.040Z,519.00
2023-05-14T10:09:38.089Z,516.00
2023-05-14T10:10:38.157Z,516.00
2023-05-14T10:11:38.317Z,517.00
2023-05-14T10:12:38.269Z,513.00
2023-05-14T10:13:38.306Z,514.00
2023-05-14T10:14:38.369Z,511.00
2023-05-14T10:15:38.396Z,515.00
2023-05-14T10:16:38.565Z,516.00
2023-05-14T10:17:38.523Z,512.00
2023-05-14T10:18:38.589Z,519.00
2023-05-14T10:19:38.597Z,513.00
2023-05-14T10:20:38.673Z,514.00
2023-05-14T10:21:38.679Z,516.00
2023-05-14T10:22:38.728Z,517.00
2023-05-14T10:23:38.775Z,513.00
2023-05-14T10:24:38.824Z,514.00
2023-05-14T10:25:38.863Z,515.00
2023-05-14T10:26:38.913Z,513.00
2023-05-14T10:27:38.946Z,515.00
2023-05-14T10:28:38.991Z,514.00
2023-05-14T10:29:39.049Z,517.00
2023-05-14T10:30:39.075Z,516.00
2023-05-14T10:31:39.150Z,517.00
2023-05-14T10:32:39.180Z,516.00
2023-05-14T10:33:39.187Z,511.00
2023-05-14T10:34:39.636Z,511.00
2023-05-14T10:35:39.609Z,513.00
2023-05-14T10:36:39.657Z,515.00
2023-05-14T10:37:39.615Z,515.00
2023-05-14T10:38:39.618Z,516.00
2023-05-14T10:39:39.608Z,518.00
2023-05-14T10:40:39.623Z,519.00
2023-05-14T10:41:39.615Z,515.00
2023-05-14T10:42:39.649Z,515.00
2023-05-14T10:43:39.615Z,516.00
2023-05-14T10:44:39.642Z,521.00
2023-05-14T10:45:39.693Z,515.00
2023-05-14T10:46:40.162Z,517.00
2023-05-14T10:47:39.921Z,519.00
2023-05-14T10:48:39.808Z,515.00
2023-05-14T10:49:43.915Z,521.00
2023-05-14T10:50:39.848Z,521.00
2023-05-14T10:51:39.874Z,521.00
2023-05-14T10:52:39.863Z,523.00
2023-05-14T10:53:39.803Z,518.00
2023-05-14T10:54:39.851Z,519.00
2023-05-14T10:55:39.872Z,525.00
2023-05-14T10:56:39.926Z,521.00
2023-05-14T10:57:39.964Z,518.00
2023-05-14T10:58:39.991Z,519.00
2023-05-14T10:59:40.039Z,521.00
2023-05-14T11:00:40.074Z,516.00
2023-05-14T11:01:40.539Z,520.00
2023-05-14T11:02:40.615Z,518.00
2023-05-14T11:03:40.542Z,520.00
2023-05-14T11:04:40.552Z,515.00
2023-05-14T11:05:40.526Z,516.00
2023-05-14T11:06:40.538Z,518.00
2023-05-14T11:07:40.555Z,519.00
2023-05-14T11:08:40.576Z,519.00
2023-05-14T11:09:40.547Z,522.00
2023-05-14T11:10:40.538Z,522.00
2023-05-14T11:11:40.536Z,517.00
2023-05-14T11:12:40.563Z,519.00
2023-05-14T11:13:40.597Z,519.00
2023-05-14T11:14:40.623Z,519.00
2023-05-14T11:15:40.655Z,526.00
2023-05-14T11:16:40.710Z,516.00
2023-05-14T11:17:40.765Z,520.00
2023-05-14T11:18:40.858Z,519.00
2023-05-14T11:19:40.830Z,520.00
2023-05-14T11:20:40.867Z,521.00
2023-05-14T11:21:40.944Z,517.00
2023-05-14T11:22:40.964Z,523.00
2023-05-14T11:23:40.977Z,520.00
2023-05-14T11:24:41.034Z,515.00
2023-05-14T11:25:41.044Z,515.00
2023-05-14T11:26:41.195Z,524.00
2023-05-14T11:27:41.134Z,523.00
2023-05-14T11:28:41.163Z,519.00
2023-05-14T11:29:41.215Z,522.00
2023-05-14T11:30:41.246Z,523.00
2023-05-14T11:31:41.286Z,523.00
2023-05-14T11:32:41.344Z,520.00
2023-05-14T11:33:41.358Z,519.00
2023-05-14T11:34:41.394Z,520.00
2023-05-14T11:35:41.426Z,514.00
2023-05-14T11:36:41.473Z,521.00
2023-05-14T11:37:41.505Z,522.00
2023-05-14T11:38:41.534Z,517.00
2023-05-14T11:39:41.579Z,520.00
2023-05-14T11:40:41.718Z,518.00
2023-05-14T11:41:41.654Z,522.00
2023-05-14T11:42:41.696Z,519.00
2023-05-14T11:43:41.737Z,519.00
2023-05-14T11:44:41.786Z,523.00
2023-05-14T11:45:41.880Z,519.00
2023-05-14T11:46:41.884Z,515.00
2023-05-14T11:47:42.002Z,523.00
2023-05-14T11:48:41.932Z,519.00
2023-05-14T11:49:41.983Z,519.00
2023-05-14T11:50:42.022Z,529.00
2023-05-14T11:51:42.048Z,522.00
2023-05-14T11:52:42.107Z,521.00
2023-05-14T11:53:42.156Z,518.00
2023-05-14T11:54:42.205Z,524.00
2023-05-14T11:55:42.233Z,525.00
2023-05-14T11:56:43.134Z,525.00
2023-05-14T11:57:42.328Z,524.00
2023-05-14T11:58:42.343Z,520.00
2023-05-14T11:59:42.374Z,523.00
2023-05-14T12:00:42.419Z,524.00
2023-05-14T12:01:42.457Z,521.00
2023-05-14T12:02:42.580Z,522.00
2023-05-14T12:03:42.643Z,525.00
2023-05-14T12:04:42.641Z,522.00
2023-05-14T12:05:42.611Z,520.00
2023-05-14T12:06:42.640Z,524.00
2023-05-14T12:07:42.688Z,521.00
2023-05-14T12:08:42.717Z,519.00
2023-05-14T12:09:44.439Z,519.00
2023-05-14T12:10:42.748Z,527.00
2023-05-14T12:11:42.730Z,527.00
2023-05-14T12:12:42.743Z,526.00
2023-05-14T12:13:42.707Z,523.00
2023-05-14T12:14:42.748Z,522.00
2023-05-14T12:15:43.164Z,521.00
2023-05-14T12:16:42.869Z,521.00
2023-05-14T12:17:42.694Z,519.00
2023-05-14T12:18:42.776Z,518.00
2023-05-14T12:19:42.640Z,524.00
2023-05-14T12:20:42.635Z,525.00
2023-05-14T12:21:43.669Z,521.00
2023-05-14T12:22:42.605Z,523.00
2023-05-14T12:23:42.597Z,527.00
2023-05-14T12:24:42.584Z,526.00
2023-05-14T12:25:42.572Z,525.00
2023-05-14T12:26:42.557Z,523.00
2023-05-14T12:27:42.593Z,524.00
2023-05-14T12:28:42.592Z,525.00
2023-05-14T12:29:42.519Z,525.00